sensor_id;sensor_type;location;lat;lon;timestamp;temperature;humidity
25923;DHT22;13725;51.170;4.442;2023-02-03T00:01:58;10.10;99.90
25923;DHT22;13725;51.170;4.442;2023-02-03T00:04:23;10.20;99.90
25923;DHT22;13725;51.170;4.442;2023-02-03T00:06:49;10.20;99.90
25923;DHT22;13725;51.170;4.442;2023-02-03T00:09:15;10.20;99.90
25923;DHT22;13725;51.170;4.442;2023-02-03T00:11:41;10.20;99.90
25923;DHT22;13725;51.170;4.442;2023-02-03T00:14:07;10.20;99.90
25923;DHT22;13725;51.170;4.442;2023-02-03T00:16:33;10.20;99.90
25923;DHT22;13725;51.170;4.442;2023-02-03T00:18:59;10.10;99.90
25923;DHT22;13725;51.170;4.442;2023-02-03T00:21:25;10.10;99.90
25923;DHT22;13725;51.170;4.442;2023-02-03T00:23:51;10.00;99.90
25923;DHT22;13725;51.170;4.442;2023-02-03T00:26:17;10.10;99.90
25923;DHT22;13725;51.170;4.442;2023-02-03T00:28:43;10.20;99.90
25923;DHT22;13725;51.170;4.442;2023-02-03T00:31:21;10.20;99.90
25923;DHT22;13725;51.170;4.442;2023-02-03T00:33:47;10.20;99.90
25923;DHT22;13725;51.170;4.442;2023-02-03T00:36:17;10.20;99.90
25923;DHT22;13725;51.170;4.442;2023-02-03T00:38:43;10.30;99.90
25923;DHT22;13725;51.170;4.442;2023-02-03T00:41:08;10.20;99.90
25923;DHT22;13725;51.170;4.442;2023-02-03T00:43:34;10.40;99.90
25923;DHT22;13725;51.170;4.442;2023-02-03T00:46:00;10.20;99.90
25923;DHT22;13725;51.170;4.442;2023-02-03T00:48:25;10.30;99.90
25923;DHT22;13725;51.170;4.442;2023-02-03T00:50:51;10.20;99.90
25923;DHT22;13725;51.170;4.442;2023-02-03T00:53:17;10.20;99.90
25923;DHT22;13725;51.170;4.442;2023-02-03T00:55:43;10.20;99.90
25923;DHT22;13725;51.170;4.442;2023-02-03T00:58:09;10.30;99.90
25923;DHT22;13725;51.170;4.442;2023-02-03T01:00:36;10.50;99.90
25923;DHT22;13725;51.170;4.442;2023-02-03T01:03:02;10.30;99.90
25923;DHT22;13725;51.170;4.442;2023-02-03T01:05:28;10.30;99.90
25923;DHT22;13725;51.170;4.442;2023-02-03T01:07:54;10.20;99.90
25923;DHT22;13725;51.170;4.442;2023-02-03T01:10:20;10.20;99.90
25923;DHT22;13725;51.170;4.442;2023-02-03T01:12:45;10.10;99.90
25923;DHT22;13725;51.170;4.442;2023-02-03T01:15:11;10.30;99.90
25923;DHT22;13725;51.170;4.442;2023-02-03T01:17:37;10.20;99.90
25923;DHT22;13725;51.170;4.442;2023-02-03T01:20:03;10.20;99.90
25923;DHT22;13725;51.170;4.442;2023-02-03T01:22:29;10.20;99.90
25923;DHT22;13725;51.170;4.442;2023-02-03T01:24:55;10.20;99.90
25923;DHT22;13725;51.170;4.442;2023-02-03T01:27:21;10.40;99.90
25923;DHT22;13725;51.170;4.442;2023-02-03T01:29:47;10.30;99.90
25923;DHT22;13725;51.170;4.442;2023-02-03T01:32:13;10.40;99.90
25923;DHT22;13725;51.170;4.442;2023-02-03T01:34:38;10.30;99.90
25923;DHT22;13725;51.170;4.442;2023-02-03T01:37:04;10.20;99.90
25923;DHT22;13725;51.170;4.442;2023-02-03T01:39:30;10.20;99.90
25923;DHT22;13725;51.170;4.442;2023-02-03T01:41:56;10.30;99.90
25923;DHT22;13725;51.170;4.442;2023-02-03T01:44:36;10.20;99.90
25923;DHT22;13725;51.170;4.442;2023-02-03T01:47:09;10.30;99.90
25923;DHT22;13725;51.170;4.442;2023-02-03T01:49:35;10.30;99.90
25923;DHT22;13725;51.170;4.442;2023-02-03T01:52:02;10.40;99.90
25923;DHT22;13725;51.170;4.442;2023-02-03T01:54:31;10.30;99.90
25923;DHT22;13725;51.170;4.442;2023-02-03T01:57:02;10.30;99.90
25923;DHT22;13725;51.170;4.442;2023-02-03T01:59:30;10.30;99.90
25923;DHT22;13725;51.170;4.442;2023-02-03T02:01:57;10.20;99.90
25923;DHT22;13725;51.170;4.442;2023-02-03T02:04:28;10.20;99.90
25923;DHT22;13725;51.170;4.442;2023-02-03T02:06:57;10.20;99.90
25923;DHT22;13725;51.170;4.442;2023-02-03T02:09:24;10.30;99.90
25923;DHT22;13725;51.170;4.442;2023-02-03T02:11:51;10.30;99.90
25923;DHT22;13725;51.170;4.442;2023-02-03T02:14:17;10.30;99.90
25923;DHT22;13725;51.170;4.442;2023-02-03T02:16:52;10.30;99.90
25923;DHT22;13725;51.170;4.442;2023-02-03T02:22:18;10.40;99.90
25923;DHT22;13725;51.170;4.442;2023-02-03T02:31:05;10.40;99.90
25923;DHT22;13725;51.170;4.442;2023-02-03T02:36:31;10.30;99.90
25923;DHT22;13725;51.170;4.442;2023-02-03T02:39:12;10.40;99.90
25923;DHT22;13725;51.170;4.442;2023-02-03T02:41:43;10.40;99.90
25923;DHT22;13725;51.170;4.442;2023-02-03T02:44:22;10.40;99.90
25923;DHT22;13725;51.170;4.442;2023-02-03T02:46:52;10.40;99.90
25923;DHT22;13725;51.170;4.442;2023-02-03T02:49:29;10.30;99.90
25923;DHT22;13725;51.170;4.442;2023-02-03T02:52:00;10.20;99.90
25923;DHT22;13725;51.170;4.442;2023-02-03T02:54:28;10.30;99.90
25923;DHT22;13725;51.170;4.442;2023-02-03T02:56:59;10.20;99.90
25923;DHT22;13725;51.170;4.442;2023-02-03T02:59:27;10.20;99.90
25923;DHT22;13725;51.170;4.442;2023-02-03T03:01:53;10.30;99.90
25923;DHT22;13725;51.170;4.442;2023-02-03T03:04:26;10.20;99.90
25923;DHT22;13725;51.170;4.442;2023-02-03T03:09:37;10.30;99.90
25923;DHT22;13725;51.170;4.442;2023-02-03T03:12:20;10.20;99.90
25923;DHT22;13725;51.170;4.442;2023-02-03T03:14:52;10.20;99.90
25923;DHT22;13725;51.170;4.442;2023-02-03T03:17:24;10.20;99.90
25923;DHT22;13725;51.170;4.442;2023-02-03T03:19:54;10.20;99.90
25923;DHT22;13725;51.170;4.442;2023-02-03T03:22:26;10.40;99.90
25923;DHT22;13725;51.170;4.442;2023-02-03T03:24:57;10.30;99.90
25923;DHT22;13725;51.170;4.442;2023-02-03T03:27:30;10.20;99.90
25923;DHT22;13725;51.170;4.442;2023-02-03T03:30:05;10.20;99.90
25923;DHT22;13725;51.170;4.442;2023-02-03T03:32:36;10.20;99.90
25923;DHT22;13725;51.170;4.442;2023-02-03T03:35:03;10.20;99.90
25923;DHT22;13725;51.170;4.442;2023-02-03T03:37:37;10.30;99.90
25923;DHT22;13725;51.170;4.442;2023-02-03T03:43:09;10.20;99.90
25923;DHT22;13725;51.170;4.442;2023-02-03T03:46:25;10.20;99.90
25923;DHT22;13725;51.170;4.442;2023-02-03T03:48:51;10.20;99.90
25923;DHT22;13725;51.170;4.442;2023-02-03T03:53:56;10.20;99.90
25923;DHT22;13725;51.170;4.442;2023-02-03T03:56:30;10.30;99.90
25923;DHT22;13725;51.170;4.442;2023-02-03T03:58:57;10.20;99.90
25923;DHT22;13725;51.170;4.442;2023-02-03T04:01:24;10.20;99.90
25923;DHT22;13725;51.170;4.442;2023-02-03T04:03:57;10.20;99.90
25923;DHT22;13725;51.170;4.442;2023-02-03T04:06:26;10.20;99.90
25923;DHT22;13725;51.170;4.442;2023-02-03T04:08:52;10.20;99.90
25923;DHT22;13725;51.170;4.442;2023-02-03T04:11:18;10.50;99.90
25923;DHT22;13725;51.170;4.442;2023-02-03T04:14:02;10.50;99.90
25923;DHT22;13725;51.170;4.442;2023-02-03T04:16:28;10.30;99.90
25923;DHT22;13725;51.170;4.442;2023-02-03T04:18:54;10.20;99.90
25923;DHT22;13725;51.170;4.442;2023-02-03T04:21:20;10.20;99.90
25923;DHT22;13725;51.170;4.442;2023-02-03T04:23:45;10.40;99.90
25923;DHT22;13725;51.170;4.442;2023-02-03T04:26:11;10.20;99.90
25923;DHT22;13725;51.170;4.442;2023-02-03T04:28:37;10.30;99.90
25923;DHT22;13725;51.170;4.442;2023-02-03T04:31:03;10.20;99.90
25923;DHT22;13725;51.170;4.442;2023-02-03T04:33:28;10.20;99.90
25923;DHT22;13725;51.170;4.442;2023-02-03T04:35:54;10.10;99.90
25923;DHT22;13725;51.170;4.442;2023-02-03T04:38:19;10.10;99.90
25923;DHT22;13725;51.170;4.442;2023-02-03T04:40:45;10.20;99.90
25923;DHT22;13725;51.170;4.442;2023-02-03T04:43:11;10.40;99.90
25923;DHT22;13725;51.170;4.442;2023-02-03T04:45:38;10.40;99.90
25923;DHT22;13725;51.170;4.442;2023-02-03T04:48:04;10.30;99.90
25923;DHT22;13725;51.170;4.442;2023-02-03T04:50:30;10.20;99.90
25923;DHT22;13725;51.170;4.442;2023-02-03T04:52:56;10.10;99.90
25923;DHT22;13725;51.170;4.442;2023-02-03T04:55:25;10.30;99.90
25923;DHT22;13725;51.170;4.442;2023-02-03T04:57:55;10.30;99.90
25923;DHT22;13725;51.170;4.442;2023-02-03T05:00:21;10.30;99.90
25923;DHT22;13725;51.170;4.442;2023-02-03T05:02:46;10.20;99.90
25923;DHT22;13725;51.170;4.442;2023-02-03T05:05:12;10.20;99.90
25923;DHT22;13725;51.170;4.442;2023-02-03T05:07:38;10.30;99.90
25923;DHT22;13725;51.170;4.442;2023-02-03T05:10:04;10.20;99.90
25923;DHT22;13725;51.170;4.442;2023-02-03T05:12:29;10.20;99.90
25923;DHT22;13725;51.170;4.442;2023-02-03T05:14:55;10.20;99.90
25923;DHT22;13725;51.170;4.442;2023-02-03T05:17:21;10.30;99.90
25923;DHT22;13725;51.170;4.442;2023-02-03T05:19:46;10.20;99.90
25923;DHT22;13725;51.170;4.442;2023-02-03T05:22:12;10.30;99.90
25923;DHT22;13725;51.170;4.442;2023-02-03T05:24:40;10.30;99.90
25923;DHT22;13725;51.170;4.442;2023-02-03T05:27:06;10.20;99.90
25923;DHT22;13725;51.170;4.442;2023-02-03T05:29:31;10.20;99.90
25923;DHT22;13725;51.170;4.442;2023-02-03T05:31:57;10.30;99.90
25923;DHT22;13725;51.170;4.442;2023-02-03T05:34:22;10.10;99.90
25923;DHT22;13725;51.170;4.442;2023-02-03T05:36:48;10.20;99.90
25923;DHT22;13725;51.170;4.442;2023-02-03T05:39:14;10.30;99.90
25923;DHT22;13725;51.170;4.442;2023-02-03T05:41:39;10.30;99.90
25923;DHT22;13725;51.170;4.442;2023-02-03T05:44:24;10.40;99.90
25923;DHT22;13725;51.170;4.442;2023-02-03T05:46:52;10.10;99.90
25923;DHT22;13725;51.170;4.442;2023-02-03T05:49:18;10.10;99.90
25923;DHT22;13725;51.170;4.442;2023-02-03T05:51:45;10.10;99.90
25923;DHT22;13725;51.170;4.442;2023-02-03T05:54:13;10.30;99.90
25923;DHT22;13725;51.170;4.442;2023-02-03T05:56:39;10.10;99.90
25923;DHT22;13725;51.170;4.442;2023-02-03T05:59:05;10.20;99.90
25923;DHT22;13725;51.170;4.442;2023-02-03T06:01:31;10.20;99.90
25923;DHT22;13725;51.170;4.442;2023-02-03T06:03:57;10.20;99.90
25923;DHT22;13725;51.170;4.442;2023-02-03T06:06:23;10.20;99.90
25923;DHT22;13725;51.170;4.442;2023-02-03T06:08:48;10.10;99.90
25923;DHT22;13725;51.170;4.442;2023-02-03T06:11:17;10.10;99.90
25923;DHT22;13725;51.170;4.442;2023-02-03T06:13:42;10.20;99.90
25923;DHT22;13725;51.170;4.442;2023-02-03T06:16:08;10.10;99.90
25923;DHT22;13725;51.170;4.442;2023-02-03T06:18:34;10.10;99.90
25923;DHT22;13725;51.170;4.442;2023-02-03T06:21:00;10.10;99.90
25923;DHT22;13725;51.170;4.442;2023-02-03T06:23:25;10.10;99.90
25923;DHT22;13725;51.170;4.442;2023-02-03T06:25:51;10.10;99.90
25923;DHT22;13725;51.170;4.442;2023-02-03T06:28:17;10.20;99.90
25923;DHT22;13725;51.170;4.442;2023-02-03T06:30:43;10.20;99.90
25923;DHT22;13725;51.170;4.442;2023-02-03T06:33:09;10.10;99.90
25923;DHT22;13725;51.170;4.442;2023-02-03T06:35:35;10.10;99.90
25923;DHT22;13725;51.170;4.442;2023-02-03T06:38:01;10.10;99.90
25923;DHT22;13725;51.170;4.442;2023-02-03T06:40:26;10.20;99.90
25923;DHT22;13725;51.170;4.442;2023-02-03T06:42:52;10.20;99.90
25923;DHT22;13725;51.170;4.442;2023-02-03T06:45:18;10.20;99.90
25923;DHT22;13725;51.170;4.442;2023-02-03T06:47:44;10.30;99.90
25923;DHT22;13725;51.170;4.442;2023-02-03T06:50:12;10.40;99.90
25923;DHT22;13725;51.170;4.442;2023-02-03T06:52:38;10.30;99.90
25923;DHT22;13725;51.170;4.442;2023-02-03T06:55:05;10.30;99.90
25923;DHT22;13725;51.170;4.442;2023-02-03T06:57:31;10.30;99.90
25923;DHT22;13725;51.170;4.442;2023-02-03T06:59:57;10.30;99.90
25923;DHT22;13725;51.170;4.442;2023-02-03T07:02:23;10.50;99.90
25923;DHT22;13725;51.170;4.442;2023-02-03T07:04:49;10.40;99.90
25923;DHT22;13725;51.170;4.442;2023-02-03T07:07:14;10.30;99.90
25923;DHT22;13725;51.170;4.442;2023-02-03T07:09:42;10.30;99.90
25923;DHT22;13725;51.170;4.442;2023-02-03T07:12:10;10.40;99.90
25923;DHT22;13725;51.170;4.442;2023-02-03T07:14:36;10.20;99.90
25923;DHT22;13725;51.170;4.442;2023-02-03T07:17:04;10.20;99.90
25923;DHT22;13725;51.170;4.442;2023-02-03T07:19:30;10.20;99.90
25923;DHT22;13725;51.170;4.442;2023-02-03T07:22:03;10.10;99.90
25923;DHT22;13725;51.170;4.442;2023-02-03T07:24:29;10.20;99.90
25923;DHT22;13725;51.170;4.442;2023-02-03T07:26:54;10.10;99.90
25923;DHT22;13725;51.170;4.442;2023-02-03T07:29:20;10.00;99.90
25923;DHT22;13725;51.170;4.442;2023-02-03T07:31:48;10.10;99.90
25923;DHT22;13725;51.170;4.442;2023-02-03T07:34:14;10.10;99.90
25923;DHT22;13725;51.170;4.442;2023-02-03T07:36:39;10.10;99.90
25923;DHT22;13725;51.170;4.442;2023-02-03T07:39:05;10.00;99.90
25923;DHT22;13725;51.170;4.442;2023-02-03T07:41:31;10.20;99.90
25923;DHT22;13725;51.170;4.442;2023-02-03T07:43:57;10.00;99.90
25923;DHT22;13725;51.170;4.442;2023-02-03T07:46:23;10.10;99.90
25923;DHT22;13725;51.170;4.442;2023-02-03T07:48:48;10.10;99.90
25923;DHT22;13725;51.170;4.442;2023-02-03T07:51:14;10.20;99.90
25923;DHT22;13725;51.170;4.442;2023-02-03T07:53:40;10.20;99.90
25923;DHT22;13725;51.170;4.442;2023-02-03T07:56:05;10.20;99.90
25923;DHT22;13725;51.170;4.442;2023-02-03T07:58:32;10.20;99.90
25923;DHT22;13725;51.170;4.442;2023-02-03T08:00:58;10.10;99.90
25923;DHT22;13725;51.170;4.442;2023-02-03T08:03:23;10.10;99.90
25923;DHT22;13725;51.170;4.442;2023-02-03T08:05:49;10.20;99.90
25923;DHT22;13725;51.170;4.442;2023-02-03T08:08:15;10.20;99.90
25923;DHT22;13725;51.170;4.442;2023-02-03T08:10:41;10.30;99.90
25923;DHT22;13725;51.170;4.442;2023-02-03T08:13:07;10.40;99.90
25923;DHT22;13725;51.170;4.442;2023-02-03T08:15:32;10.50;99.90
25923;DHT22;13725;51.170;4.442;2023-02-03T08:17:58;10.70;99.90
25923;DHT22;13725;51.170;4.442;2023-02-03T08:20:24;10.60;99.90
25923;DHT22;13725;51.170;4.442;2023-02-03T08:22:49;10.60;99.90
25923;DHT22;13725;51.170;4.442;2023-02-03T08:25:15;10.60;99.90
25923;DHT22;13725;51.170;4.442;2023-02-03T08:27:41;10.70;99.90
25923;DHT22;13725;51.170;4.442;2023-02-03T08:30:10;10.60;99.90
25923;DHT22;13725;51.170;4.442;2023-02-03T08:32:36;10.50;99.90
25923;DHT22;13725;51.170;4.442;2023-02-03T08:35:02;10.50;99.90
25923;DHT22;13725;51.170;4.442;2023-02-03T08:37:27;10.60;99.90
25923;DHT22;13725;51.170;4.442;2023-02-03T08:39:56;10.60;99.90
25923;DHT22;13725;51.170;4.442;2023-02-03T08:42:21;10.60;99.90
25923;DHT22;13725;51.170;4.442;2023-02-03T08:44:47;10.60;99.90
25923;DHT22;13725;51.170;4.442;2023-02-03T08:47:14;10.80;99.90
25923;DHT22;13725;51.170;4.442;2023-02-03T08:49:40;10.70;99.90
25923;DHT22;13725;51.170;4.442;2023-02-03T08:52:07;10.80;99.90
25923;DHT22;13725;51.170;4.442;2023-02-03T08:54:35;10.80;99.90
25923;DHT22;13725;51.170;4.442;2023-02-03T08:57:01;10.80;99.90
25923;DHT22;13725;51.170;4.442;2023-02-03T08:59:26;11.00;99.90
25923;DHT22;13725;51.170;4.442;2023-02-03T09:01:54;10.80;99.90
25923;DHT22;13725;51.170;4.442;2023-02-03T09:04:20;10.80;99.90
25923;DHT22;13725;51.170;4.442;2023-02-03T09:06:52;10.90;99.90
25923;DHT22;13725;51.170;4.442;2023-02-03T09:09:22;10.80;99.90
25923;DHT22;13725;51.170;4.442;2023-02-03T09:11:49;10.80;99.90
25923;DHT22;13725;51.170;4.442;2023-02-03T09:14:15;10.80;99.90
25923;DHT22;13725;51.170;4.442;2023-02-03T09:16:41;11.00;99.90
25923;DHT22;13725;51.170;4.442;2023-02-03T09:19:09;11.00;99.90
25923;DHT22;13725;51.170;4.442;2023-02-03T09:21:35;11.00;99.90
25923;DHT22;13725;51.170;4.442;2023-02-03T09:24:01;11.10;99.90
25923;DHT22;13725;51.170;4.442;2023-02-03T09:26:29;11.00;99.90
25923;DHT22;13725;51.170;4.442;2023-02-03T09:28:55;11.20;99.90
25923;DHT22;13725;51.170;4.442;2023-02-03T09:31:21;11.20;99.90
25923;DHT22;13725;51.170;4.442;2023-02-03T09:33:46;11.30;99.90
25923;DHT22;13725;51.170;4.442;2023-02-03T09:36:12;11.20;99.90
25923;DHT22;13725;51.170;4.442;2023-02-03T09:38:38;11.20;99.90
25923;DHT22;13725;51.170;4.442;2023-02-03T09:43:52;11.10;99.90
25923;DHT22;13725;51.170;4.442;2023-02-03T09:46:26;11.20;99.90
25923;DHT22;13725;51.170;4.442;2023-02-03T09:49:17;11.20;99.90
25923;DHT22;13725;51.170;4.442;2023-02-03T09:52:03;11.30;99.90
25923;DHT22;13725;51.170;4.442;2023-02-03T09:57:27;11.30;99.90
25923;DHT22;13725;51.170;4.442;2023-02-03T09:59:58;11.50;99.90
25923;DHT22;13725;51.170;4.442;2023-02-03T10:02:36;11.50;99.90
25923;DHT22;13725;51.170;4.442;2023-02-03T10:10:52;11.80;99.90
25923;DHT22;13725;51.170;4.442;2023-02-03T10:18:57;11.80;99.90
25923;DHT22;13725;51.170;4.442;2023-02-03T10:21:57;11.70;99.90
25923;DHT22;13725;51.170;4.442;2023-02-03T10:24:39;11.70;99.90
25923;DHT22;13725;51.170;4.442;2023-02-03T10:27:15;11.70;99.90
25923;DHT22;13725;51.170;4.442;2023-02-03T10:29:42;11.50;99.90
25923;DHT22;13725;51.170;4.442;2023-02-03T10:32:12;11.40;99.90
25923;DHT22;13725;51.170;4.442;2023-02-03T10:34:38;11.50;99.90
25923;DHT22;13725;51.170;4.442;2023-02-03T10:37:22;11.70;99.90
25923;DHT22;13725;51.170;4.442;2023-02-03T10:39:53;11.60;99.90
25923;DHT22;13725;51.170;4.442;2023-02-03T10:42:20;11.80;99.90
25923;DHT22;13725;51.170;4.442;2023-02-03T10:44:54;11.60;99.90
25923;DHT22;13725;51.170;4.442;2023-02-03T10:47:28;11.50;99.90
25923;DHT22;13725;51.170;4.442;2023-02-03T10:50:05;11.60;99.90
25923;DHT22;13725;51.170;4.442;2023-02-03T10:52:35;11.60;99.90
25923;DHT22;13725;51.170;4.442;2023-02-03T10:55:06;11.70;99.90
25923;DHT22;13725;51.170;4.442;2023-02-03T10:57:35;11.60;99.90
25923;DHT22;13725;51.170;4.442;2023-02-03T11:03:22;11.70;99.90
25923;DHT22;13725;51.170;4.442;2023-02-03T11:06:13;11.50;99.90
25923;DHT22;13725;51.170;4.442;2023-02-03T11:08:42;11.50;99.90
25923;DHT22;13725;51.170;4.442;2023-02-03T11:11:13;11.80;99.90
25923;DHT22;13725;51.170;4.442;2023-02-03T11:13:40;11.80;99.90
25923;DHT22;13725;51.170;4.442;2023-02-03T11:16:16;11.80;99.90
25923;DHT22;13725;51.170;4.442;2023-02-03T11:18:54;11.90;99.90
25923;DHT22;13725;51.170;4.442;2023-02-03T11:21:22;11.90;99.90
25923;DHT22;13725;51.170;4.442;2023-02-03T11:23:53;12.00;99.90
25923;DHT22;13725;51.170;4.442;2023-02-03T11:26:32;12.10;99.90
25923;DHT22;13725;51.170;4.442;2023-02-03T11:29:03;12.10;99.90
25923;DHT22;13725;51.170;4.442;2023-02-03T11:31:33;12.00;99.90
25923;DHT22;13725;51.170;4.442;2023-02-03T11:34:08;11.90;99.90
25923;DHT22;13725;51.170;4.442;2023-02-03T11:36:39;11.90;99.90
25923;DHT22;13725;51.170;4.442;2023-02-03T11:41:39;11.90;99.90
25923;DHT22;13725;51.170;4.442;2023-02-03T11:44:18;11.90;99.90
25923;DHT22;13725;51.170;4.442;2023-02-03T11:46:47;11.90;99.90
25923;DHT22;13725;51.170;4.442;2023-02-03T11:58:39;11.60;99.90
25923;DHT22;13725;51.170;4.442;2023-02-03T12:09:42;11.70;99.90
25923;DHT22;13725;51.170;4.442;2023-02-03T12:18:14;11.80;99.90
25923;DHT22;13725;51.170;4.442;2023-02-03T12:26:19;11.80;99.90
25923;DHT22;13725;51.170;4.442;2023-02-03T12:29:10;11.90;99.90
25923;DHT22;13725;51.170;4.442;2023-02-03T12:32:01;12.10;99.90
25923;DHT22;13725;51.170;4.442;2023-02-03T12:34:41;12.20;99.90
25923;DHT22;13725;51.170;4.442;2023-02-03T12:37:14;12.20;99.90
25923;DHT22;13725;51.170;4.442;2023-02-03T12:39:45;12.20;99.90
25923;DHT22;13725;51.170;4.442;2023-02-03T12:42:42;12.10;99.90
25923;DHT22;13725;51.170;4.442;2023-02-03T12:45:31;12.20;99.90
25923;DHT22;13725;51.170;4.442;2023-02-03T12:48:21;12.20;99.90
25923;DHT22;13725;51.170;4.442;2023-02-03T12:50:50;12.20;99.90
25923;DHT22;13725;51.170;4.442;2023-02-03T12:53:40;12.20;99.90
25923;DHT22;13725;51.170;4.442;2023-02-03T12:56:12;12.20;99.90
25923;DHT22;13725;51.170;4.442;2023-02-03T12:58:43;12.30;99.90
25923;DHT22;13725;51.170;4.442;2023-02-03T13:01:18;12.40;99.90
25923;DHT22;13725;51.170;4.442;2023-02-03T13:03:47;12.20;99.90
25923;DHT22;13725;51.170;4.442;2023-02-03T13:09:36;12.20;99.90
25923;DHT22;13725;51.170;4.442;2023-02-03T13:12:15;12.20;99.90
25923;DHT22;13725;51.170;4.442;2023-02-03T13:14:56;12.20;99.90
25923;DHT22;13725;51.170;4.442;2023-02-03T13:17:29;12.20;99.90
25923;DHT22;13725;51.170;4.442;2023-02-03T13:20:31;12.30;99.90
25923;DHT22;13725;51.170;4.442;2023-02-03T13:23:04;12.20;99.90
25923;DHT22;13725;51.170;4.442;2023-02-03T13:41:54;12.20;99.90
25923;DHT22;13725;51.170;4.442;2023-02-03T13:44:24;12.00;99.90
25923;DHT22;13725;51.170;4.442;2023-02-03T13:46:55;12.00;99.90
25923;DHT22;13725;51.170;4.442;2023-02-03T13:49:26;12.10;99.90
25923;DHT22;13725;51.170;4.442;2023-02-03T13:51:53;12.00;99.90
25923;DHT22;13725;51.170;4.442;2023-02-03T13:54:25;12.00;99.90
25923;DHT22;13725;51.170;4.442;2023-02-03T13:56:53;12.10;99.90
25923;DHT22;13725;51.170;4.442;2023-02-03T13:59:39;12.30;99.90
25923;DHT22;13725;51.170;4.442;2023-02-03T14:04:53;12.30;99.90
25923;DHT22;13725;51.170;4.442;2023-02-03T14:10:12;12.40;99.90
25923;DHT22;13725;51.170;4.442;2023-02-03T14:25:41;12.50;99.90
25923;DHT22;13725;51.170;4.442;2023-02-03T14:28:15;12.50;99.90
25923;DHT22;13725;51.170;4.442;2023-02-03T14:31:04;12.50;99.90
25923;DHT22;13725;51.170;4.442;2023-02-03T14:33:50;12.40;99.90
25923;DHT22;13725;51.170;4.442;2023-02-03T14:36:31;12.40;99.90
25923;DHT22;13725;51.170;4.442;2023-02-03T14:39:03;12.40;99.90
25923;DHT22;13725;51.170;4.442;2023-02-03T14:42:31;12.50;99.90
25923;DHT22;13725;51.170;4.442;2023-02-03T14:44:42;12.40;99.90
25923;DHT22;13725;51.170;4.442;2023-02-03T14:58:28;12.10;99.90
25923;DHT22;13725;51.170;4.442;2023-02-03T15:00:54;12.10;99.90
25923;DHT22;13725;51.170;4.442;2023-02-03T15:03:25;12.10;99.90
25923;DHT22;13725;51.170;4.442;2023-02-03T15:06:02;12.10;99.90
25923;DHT22;13725;51.170;4.442;2023-02-03T15:11:22;12.30;99.90
25923;DHT22;13725;51.170;4.442;2023-02-03T15:13:48;12.30;99.90
25923;DHT22;13725;51.170;4.442;2023-02-03T15:16:18;12.30;99.90
25923;DHT22;13725;51.170;4.442;2023-02-03T15:18:44;12.30;99.90
25923;DHT22;13725;51.170;4.442;2023-02-03T15:21:16;12.20;99.90
25923;DHT22;13725;51.170;4.442;2023-02-03T15:23:44;12.30;99.90
25923;DHT22;13725;51.170;4.442;2023-02-03T15:26:14;12.40;99.90
25923;DHT22;13725;51.170;4.442;2023-02-03T15:28:40;12.40;99.90
25923;DHT22;13725;51.170;4.442;2023-02-03T15:31:18;12.30;99.90
25923;DHT22;13725;51.170;4.442;2023-02-03T15:33:46;12.30;99.90
25923;DHT22;13725;51.170;4.442;2023-02-03T15:36:30;12.30;99.90
25923;DHT22;13725;51.170;4.442;2023-02-03T15:39:10;12.20;99.90
25923;DHT22;13725;51.170;4.442;2023-02-03T15:41:38;12.20;99.90
25923;DHT22;13725;51.170;4.442;2023-02-03T15:44:12;12.20;99.90
25923;DHT22;13725;51.170;4.442;2023-02-03T15:46:49;12.30;99.90
25923;DHT22;13725;51.170;4.442;2023-02-03T15:49:43;12.50;99.90
25923;DHT22;13725;51.170;4.442;2023-02-03T15:52:16;12.50;99.90
25923;DHT22;13725;51.170;4.442;2023-02-03T15:54:48;12.30;99.90
25923;DHT22;13725;51.170;4.442;2023-02-03T16:00:11;12.10;99.90
25923;DHT22;13725;51.170;4.442;2023-02-03T16:02:44;12.00;99.90
25923;DHT22;13725;51.170;4.442;2023-02-03T16:05:32;11.80;99.90
25923;DHT22;13725;51.170;4.442;2023-02-03T16:10:53;11.70;99.90
25923;DHT22;13725;51.170;4.442;2023-02-03T16:13:26;11.70;99.90
25923;DHT22;13725;51.170;4.442;2023-02-03T16:18:26;11.70;99.90
25923;DHT22;13725;51.170;4.442;2023-02-03T16:20:52;11.70;99.90
25923;DHT22;13725;51.170;4.442;2023-02-03T16:23:23;11.60;99.90
25923;DHT22;13725;51.170;4.442;2023-02-03T16:26:25;11.60;99.90
25923;DHT22;13725;51.170;4.442;2023-02-03T16:31:53;11.40;99.90
25923;DHT22;13725;51.170;4.442;2023-02-03T16:34:38;11.30;99.90
25923;DHT22;13725;51.170;4.442;2023-02-03T16:40:12;11.20;99.90
25923;DHT22;13725;51.170;4.442;2023-02-03T16:42:57;11.00;99.90
25923;DHT22;13725;51.170;4.442;2023-02-03T16:45:41;11.00;99.90
25923;DHT22;13725;51.170;4.442;2023-02-03T16:48:26;10.90;99.90
25923;DHT22;13725;51.170;4.442;2023-02-03T16:51:15;10.90;99.90
25923;DHT22;13725;51.170;4.442;2023-02-03T16:53:43;10.90;99.90
25923;DHT22;13725;51.170;4.442;2023-02-03T16:56:16;10.80;99.90
25923;DHT22;13725;51.170;4.442;2023-02-03T16:58:45;11.00;99.90
25923;DHT22;13725;51.170;4.442;2023-02-03T17:01:11;11.00;99.90
25923;DHT22;13725;51.170;4.442;2023-02-03T17:03:38;10.90;99.90
25923;DHT22;13725;51.170;4.442;2023-02-03T17:06:08;11.00;99.90
25923;DHT22;13725;51.170;4.442;2023-02-03T17:08:36;10.90;99.90
25923;DHT22;13725;51.170;4.442;2023-02-03T17:11:04;10.90;99.90
25923;DHT22;13725;51.170;4.442;2023-02-03T17:13:31;10.90;99.90
25923;DHT22;13725;51.170;4.442;2023-02-03T17:15:57;10.80;99.90
25923;DHT22;13725;51.170;4.442;2023-02-03T17:18:23;10.80;99.90
25923;DHT22;13725;51.170;4.442;2023-02-03T17:20:49;10.70;99.90
25923;DHT22;13725;51.170;4.442;2023-02-03T17:23:15;10.80;99.90
25923;DHT22;13725;51.170;4.442;2023-02-03T17:25:43;10.80;99.90
25923;DHT22;13725;51.170;4.442;2023-02-03T17:28:10;10.80;99.90
25923;DHT22;13725;51.170;4.442;2023-02-03T17:30:37;10.80;99.90
25923;DHT22;13725;51.170;4.442;2023-02-03T17:33:04;10.70;99.90
25923;DHT22;13725;51.170;4.442;2023-02-03T17:35:43;10.60;99.90
25923;DHT22;13725;51.170;4.442;2023-02-03T17:38:12;10.60;99.90
25923;DHT22;13725;51.170;4.442;2023-02-03T17:40:42;10.50;99.90
25923;DHT22;13725;51.170;4.442;2023-02-03T17:43:08;10.50;99.90
25923;DHT22;13725;51.170;4.442;2023-02-03T17:45:39;10.50;99.90
25923;DHT22;13725;51.170;4.442;2023-02-03T17:48:07;10.50;99.90
25923;DHT22;13725;51.170;4.442;2023-02-03T17:50:32;10.40;99.90
25923;DHT22;13725;51.170;4.442;2023-02-03T17:52:58;10.50;99.90
25923;DHT22;13725;51.170;4.442;2023-02-03T17:55:24;10.50;99.90
25923;DHT22;13725;51.170;4.442;2023-02-03T17:57:50;10.50;99.90
25923;DHT22;13725;51.170;4.442;2023-02-03T18:00:16;10.50;99.90
25923;DHT22;13725;51.170;4.442;2023-02-03T18:02:41;10.60;99.90
25923;DHT22;13725;51.170;4.442;2023-02-03T18:05:08;10.80;99.90
25923;DHT22;13725;51.170;4.442;2023-02-03T18:07:34;10.60;99.90